ADDS METAR Data INFO
IDs: Format: Raw Decoded Include TAF

Data at: 0352 UTC 18 Oct 2017

KPPQ 180335Z AUTO 17004KT 10SM CLR 11/05 A3018 RMK AO2 T01100052
KPPQ 180315Z AUTO 00000KT 10SM CLR 12/06 A3018 RMK AO2 T01210055
KPPQ 180255Z AUTO 16003KT 10SM CLR 12/06 A3018 RMK AO2 T01200058
KPPQ 180235Z AUTO 18003KT 10SM CLR 12/06 A3018 RMK AO2 T01230055
KPPQ 180215Z AUTO 16004KT 10SM CLR 13/06 A3018 RMK AO2 T01270057
KPPQ 180155Z AUTO 17004KT 10SM CLR 13/06 A3018 RMK AO2 T01300057
KPPQ 180135Z AUTO 16004KT 10SM CLR 13/06 A3017 RMK AO2 T01300058
KPPQ 180115Z AUTO 16004KT 10SM CLR 13/06 A3017 RMK AO2 T01280058
KPPQ 180055Z AUTO 16003KT 10SM CLR 14/06 A3017 RMK AO2 T01370060
KPPQ 180035Z AUTO 00000KT 10SM CLR 14/06 A3017 RMK AO2 T01430060
KPPQ 180015Z AUTO 00000KT 10SM CLR 14/06 A3017 RMK AO2 T01360057
KPPQ 172355Z AUTO 16003KT 10SM CLR 15/06 A3016 RMK AO2 T01480056 10211 20147
KPPQ 172335Z AUTO 17003KT 10SM CLR 16/06 A3016 RMK AO2 T01560059
KPPQ 172315Z AUTO 18004KT 10SM CLR 17/06 A3016 RMK AO2 T01710061
KPPQ 172255Z AUTO 17005KT 10SM CLR 19/06 A3016 RMK AO2 T01860059
KPPQ 172235Z AUTO 18006KT 10SM CLR 20/06 A3016 RMK AO2 T01950055
KPPQ 172215Z AUTO 19007KT 10SM CLR 20/05 A3016 RMK AO2 T02000051
KPPQ 172155Z AUTO 19010KT 10SM CLR 20/05 A3016 RMK AO2 T02030046
KPPQ 172135Z AUTO 18011KT 10SM CLR 21/06 A3017 RMK AO2 T02060061
KPPQ 172115Z AUTO 20009G14KT 10SM CLR 21/06 A3017 RMK AO2 T02050056
KPPQ 172055Z AUTO 21008KT 10SM CLR 21/06 A3018 RMK AO2 T02090058
KPPQ 172035Z AUTO 18012G15KT 10SM CLR 21/05 A3018 RMK AO2 T02080053
KPPQ 172015Z AUTO 20009KT 10SM CLR 21/05 A3019 RMK AO2 T02070047
KPPQ 171955Z AUTO 18010KT 10SM CLR 21/05 A3019 RMK AO2 T02100049
KPPQ 171935Z AUTO 17012G16KT 10SM CLR 21/05 A3020 RMK AO2 T02100048
KPPQ 171915Z AUTO 19009KT 10SM CLR 21/05 A3021 RMK AO2 T02070053
KPPQ 171855Z AUTO 21011G14KT 10SM CLR 21/06 A3022 RMK AO2 T02070056
KPPQ 171835Z AUTO 18006KT 10SM CLR 20/07 A3023 RMK AO2 T01950067
KPPQ 171815Z AUTO 19009KT 10SM CLR 19/07 A3025 RMK AO2 T01920067
KPPQ 171755Z AUTO 20008KT 10SM CLR 17/06 A3026 RMK AO2 T01720059 10185 20081
KPPQ 171735Z AUTO 19008KT 10SM CLR 18/06 A3027 RMK AO2 T01810060
KPPQ 171715Z AUTO 21011KT 10SM CLR 18/06 A3028 RMK AO2 T01840060
KPPQ 171655Z AUTO 20013KT 10SM CLR 18/06 A3028 RMK AO2 T01790061
KPPQ 171635Z AUTO 20007KT 10SM CLR 17/06 A3030 RMK AO2 T01650061
KPPQ 171615Z AUTO 19012KT 10SM CLR 16/06 A3030 RMK AO2 T01600057
KPPQ 171555Z AUTO 20010G16KT 10SM CLR 16/06 A3030 RMK AO2 T01590057
KPPQ 171535Z AUTO 19010KT 10SM CLR 16/06 A3030 RMK AO2 T01590058
KPPQ 171515Z AUTO 20007KT 10SM CLR 15/06 A3031 RMK AO2 T01480055
KPPQ 171455Z AUTO 20007KT 10SM CLR 14/06 A3031 RMK AO2 T01420057
KPPQ 171435Z AUTO 18008KT 10SM CLR 14/06 A3030 RMK AO2 T01350059
KPPQ 171415Z AUTO 19008KT 10SM CLR 12/06 A3030 RMK AO2 T01220059
KPPQ 171355Z AUTO 19006KT 10SM CLR 11/06 A3030 RMK AO2 T01120057
KPPQ 171335Z AUTO 18007KT 10SM CLR 10/05 A3030 RMK AO2 T01020049
KPPQ 171315Z AUTO 18006KT 10SM CLR 10/05 A3029 RMK AO2 T00950047
KPPQ 171255Z AUTO 19005KT 10SM CLR 09/04 A3029 RMK AO2 T00880043
KPPQ 171235Z AUTO 19005KT 10SM CLR 08/04 A3029 RMK AO2 T00840043
KPPQ 171215Z AUTO 20004KT 10SM CLR 08/04 A3029 RMK AO2 T00810042
KPPQ 171155Z AUTO 20005KT 10SM CLR 09/05 A3029 RMK AO2 T00850045 10098 20079
KPPQ 171135Z AUTO 19006KT 10SM CLR 09/05 A3028 RMK AO2 T00880047
KPPQ 171115Z AUTO 19004KT 10SM CLR 09/05 A3028 RMK AO2 T00870047
KPPQ 171055Z AUTO 20004KT 10SM CLR 08/05 A3028 RMK AO2 T00820045
KPPQ 171035Z AUTO 19005KT 10SM CLR 08/05 A3028 RMK AO2 T00800047
KPPQ 171015Z AUTO 20004KT 10SM CLR 08/05 A3028 RMK AO2 T00830047
KPPQ 170955Z AUTO 19005KT 10SM CLR 09/05 A3027 RMK AO2 T00880046
KPPQ 170935Z AUTO 20004KT 10SM CLR 09/05 A3027 RMK AO2 T00860046
KPPQ 170915Z AUTO 18003KT 10SM CLR 09/05 A3027 RMK AO2 T00870047
KPPQ 170855Z AUTO 21004KT 10SM CLR 09/05 A3026 RMK AO2 T00920046
KPPQ 170835Z AUTO 21005KT 10SM CLR 10/05 A3027 RMK AO2 T00950049
KPPQ 170815Z AUTO 21005KT 10SM CLR 09/05 A3027 RMK AO2 T00900050
KPPQ 170755Z AUTO 19004KT 10SM CLR 08/05 A3028 RMK AO2 T00830045
KPPQ 170735Z AUTO 21003KT 10SM CLR 08/05 A3027 RMK AO2 T00820046
KPPQ 170715Z AUTO 20003KT 10SM CLR 08/05 A3027 RMK AO2 T00820046
KPPQ 170655Z AUTO 19003KT 10SM CLR 08/04 A3026 RMK AO2 T00840044
KPPQ 170635Z AUTO 19003KT 10SM CLR 09/05 A3026 RMK AO2 T00910047
KPPQ 170615Z AUTO 19004KT 10SM CLR 10/05 A3027 RMK AO2 T00950048
KPPQ 170555Z AUTO 19005KT 10SM CLR 09/05 A3027 RMK AO2 T00920047 10135 20076 401920034
KPPQ 170535Z AUTO 20003KT 10SM CLR 09/05 A3027 RMK AO2 T00940045
KPPQ 170515Z AUTO 21004KT 10SM CLR 10/05 A3027 RMK AO2 T00990048
KPPQ 170455Z AUTO 19004KT 10SM CLR 09/04 A3028 RMK AO2 T00860043
KPPQ 170435Z AUTO 20003KT 10SM CLR 09/04 A3028 RMK AO2 T00870042
KPPQ 170415Z AUTO 00000KT 10SM CLR 10/04 A3028 RMK AO2 T00980043
KPPQ 170355Z AUTO 19004KT 10SM CLR 10/04 A3028 RMK AO2 T00970043
KPPQ 170335Z AUTO 19004KT 10SM CLR 10/05 A3028 RMK AO2 T00950047
KPPQ 170315Z AUTO 19003KT 10SM CLR 08/06 A3029 RMK AO2 T00760063
KPPQ 170255Z AUTO 00000KT 10SM CLR 09/06 A3029 RMK AO2 T00930055
KPPQ 170235Z AUTO 00000KT 10SM CLR 10/06 A3029 RMK AO2 T00960059
KPPQ 170215Z AUTO 00000KT 10SM CLR 09/06 A3028 RMK AO2 T00910059
KPPQ 170155Z AUTO 00000KT 10SM CLR 09/06 A3028 RMK AO2 T00920059
KPPQ 170135Z AUTO 00000KT 10SM CLR 10/06 A3028 RMK AO2 T01020059
KPPQ 170115Z AUTO 00000KT 10SM CLR 11/05 A3028 RMK AO2 T01050053
KPPQ 170055Z AUTO 00000KT 10SM CLR 11/06 A3028 RMK AO2 T01060056
KPPQ 170030Z AUTO 00000KT 10SM CLR 13/04 A3028 RMK AO2 T01300041
KPPQ 170015Z AUTO 00000KT 10SM CLR 12/05 A3027 RMK AO2 T01240051
KPPQ 162355Z AUTO 00000KT 10SM CLR 14/04 A3027 RMK AO2 T01360036 10192 20136
KPPQ 162335Z AUTO 20003KT 10SM CLR 14/03 A3026 RMK AO2 T01430033
KPPQ 162315Z AUTO 21003KT 10SM CLR 17/02 A3027 RMK AO2 T01700022
KPPQ 162255Z AUTO 21005KT 10SM CLR 18/02 A3027 RMK AO2 T01750024
KPPQ 162235Z AUTO 23005KT 10SM CLR 18/02 A3028 RMK AO2 T01810024
KPPQ 162215Z AUTO 22004KT 10SM CLR 19/02 A3028 RMK AO2 T01860022
KPPQ 162155Z AUTO 22005KT 10SM CLR 19/03 A3028 RMK AO2 T01900026
KPPQ 162135Z AUTO 25004KT 10SM CLR 19/02 A3028 RMK AO2 T01910023
KPPQ 162115Z AUTO 26007KT 10SM CLR 19/02 A3029 RMK AO2 T01920019
KPPQ 162055Z AUTO 25003KT 10SM CLR 19/01 A3030 RMK AO2 T01880014
KPPQ 162035Z AUTO 30004KT 10SM CLR 19/02 A3030 RMK AO2 T01900024
KPPQ 162015Z AUTO 27004KT 10SM CLR 19/03 A3031 RMK AO2 T01910026
KPPQ 161955Z AUTO 25008KT 210V280 10SM CLR 19/03 A3031 RMK AO2 T01890030
KPPQ 161935Z AUTO 24004KT 10SM CLR 19/03 A3032 RMK AO2 T01860028
KPPQ 161915Z AUTO 00000KT 10SM CLR 18/02 A3033 RMK AO2 T01810019
KPPQ 161855Z AUTO 27005KT 10SM CLR 18/03 A3034 RMK AO2 T01810029
KPPQ 161835Z AUTO 29008KT 7SM CLR 18/03 A3034 RMK AO2 T01800033
KPPQ 161815Z AUTO 30004KT 10SM SCT001 18/03 A3035 RMK AO2 T01750026
KPPQ 161755Z AUTO 27008KT 7SM SCT001 17/04 A3036 RMK AO2 T01720036 10174 20036
KPPQ 161735Z AUTO 26007KT 10SM CLR 17/04 A3037 RMK AO2 T01690041
KPPQ 161715Z AUTO 21007KT 5SM HZ CLR 17/04 A3038 RMK AO2 T01670039
KPPQ 161655Z AUTO 23008KT 10SM CLR 16/03 A3038 RMK AO2 T01640034
KPPQ 161635Z AUTO 22009KT 10SM CLR 16/03 A3038 RMK AO2 T01600031
KPPQ 161615Z AUTO 24008G15KT 10SM CLR 16/03 A3039 RMK AO2 T01550027
KPPQ 161555Z AUTO 26009KT 10SM CLR 15/04 A3039 RMK AO2 T01500036